createdAt,value
2022-11-05T00:02:56.766Z,89
2022-11-05T00:05:56.746Z,89
2022-11-05T00:08:56.748Z,89
2022-11-05T00:11:56.765Z,89
2022-11-05T00:14:56.739Z,89
2022-11-05T00:17:56.743Z,89
2022-11-05T00:20:56.745Z,89
2022-11-05T00:23:56.741Z,89
2022-11-05T00:26:56.741Z,89
2022-11-05T00:29:56.736Z,89
2022-11-05T00:32:56.751Z,89
2022-11-05T00:35:56.734Z,90
2022-11-05T00:38:56.792Z,90
2022-11-05T00:41:56.769Z,90
2022-11-05T00:44:56.736Z,90
2022-11-05T00:47:56.840Z,90
2022-11-05T00:50:56.737Z,90
2022-11-05T00:53:56.747Z,90
2022-11-05T00:57:00.638Z,90
2022-11-05T00:59:56.741Z,90
2022-11-05T01:02:56.787Z,90
2022-11-05T01:05:56.754Z,90
2022-11-05T01:08:56.721Z,90
2022-11-05T01:11:56.741Z,90
2022-11-05T01:14:56.719Z,90
2022-11-05T01:17:56.725Z,90
2022-11-05T01:20:56.729Z,90
2022-11-05T01:23:56.730Z,90
2022-11-05T01:26:56.735Z,90
2022-11-05T01:29:56.725Z,90
2022-11-05T01:32:56.734Z,90
2022-11-05T01:35:56.731Z,90
2022-11-05T01:38:56.725Z,90
2022-11-05T01:41:56.722Z,90
2022-11-05T01:44:56.721Z,90
2022-11-05T01:47:56.722Z,90
2022-11-05T01:50:56.725Z,90
2022-11-05T01:53:56.722Z,90
2022-11-05T01:56:56.716Z,90
2022-11-05T01:59:56.716Z,90
2022-11-05T02:02:56.796Z,90
2022-11-05T02:05:56.743Z,90
2022-11-05T02:08:56.713Z,91
2022-11-05T02:11:56.839Z,91
2022-11-05T02:14:56.848Z,91
2022-11-05T02:17:56.842Z,91
2022-11-05T02:20:56.843Z,91
2022-11-05T02:23:56.848Z,91
2022-11-05T02:26:56.847Z,91
2022-11-05T02:29:56.843Z,91
2022-11-05T02:32:56.845Z,91
2022-11-05T02:35:56.842Z,91
2022-11-05T02:38:56.841Z,91
2022-11-05T02:42:00.563Z,91
2022-11-05T02:44:56.825Z,91
2022-11-05T02:47:56.836Z,91
2022-11-05T02:50:56.928Z,91
2022-11-05T02:53:56.838Z,91
2022-11-05T02:56:56.833Z,91
2022-11-05T02:59:56.829Z,91
2022-11-05T03:02:56.889Z,91
2022-11-05T03:05:56.833Z,91
2022-11-05T03:08:56.825Z,91
2022-11-05T03:11:56.821Z,91
2022-11-05T03:14:56.824Z,91
2022-11-05T03:17:56.823Z,91
2022-11-05T03:20:56.826Z,91
2022-11-05T03:23:56.823Z,91
2022-11-05T03:26:56.820Z,91
2022-11-05T03:32:56.822Z,91
2022-11-05T03:35:56.944Z,91
2022-11-05T03:38:56.796Z,91
2022-11-05T03:41:56.810Z,91
2022-11-05T03:47:56.806Z,91
2022-11-05T03:50:56.807Z,91
2022-11-05T03:53:56.794Z,91
2022-11-05T03:56:56.806Z,91
2022-11-05T03:59:56.843Z,91
2022-11-05T04:05:56.807Z,91
2022-11-05T04:08:56.795Z,91
2022-11-05T04:11:56.793Z,91
2022-11-05T04:14:56.798Z,91
2022-11-05T04:17:56.790Z,91
2022-11-05T04:20:56.809Z,91
2022-11-05T04:23:56.793Z,91
2022-11-05T04:26:56.802Z,91
2022-11-05T04:29:56.795Z,91
2022-11-05T04:32:56.803Z,91
2022-11-05T04:38:56.786Z,91
2022-11-05T04:41:56.821Z,91
2022-11-05T04:44:56.809Z,91
2022-11-05T04:47:56.808Z,91
2022-11-05T04:50:56.809Z,91
2022-11-05T04:53:56.798Z,91
2022-11-05T04:56:56.807Z,91
2022-11-05T04:59:56.793Z,91
2022-11-05T05:02:56.803Z,91
2022-11-05T05:06:00.839Z,91
2022-11-05T05:08:56.782Z,91
2022-11-05T05:11:56.806Z,91
2022-11-05T05:14:56.784Z,91
2022-11-05T05:17:56.795Z,91
2022-11-05T05:20:56.807Z,91
2022-11-05T05:23:56.786Z,91
2022-11-05T05:26:56.810Z,91
2022-11-05T05:29:56.796Z,91
2022-11-05T05:32:56.792Z,91
2022-11-05T05:35:56.808Z,91
2022-11-05T05:38:56.786Z,91
2022-11-05T05:41:56.780Z,91
2022-11-05T05:44:56.770Z,91
2022-11-05T05:47:56.775Z,91
2022-11-05T05:50:56.784Z,91
2022-11-05T05:53:56.775Z,91
2022-11-05T05:56:56.791Z,91
2022-11-05T05:59:56.770Z,91
2022-11-05T06:02:56.838Z,91
2022-11-05T06:05:56.771Z,91
2022-11-05T06:08:56.773Z,91
2022-11-05T06:11:56.766Z,91
2022-11-05T06:14:56.772Z,91
2022-11-05T06:17:56.782Z,91
2022-11-05T06:20:56.766Z,91
2022-11-05T06:23:56.770Z,91
2022-11-05T06:26:56.760Z,91
2022-11-05T06:29:56.762Z,91
2022-11-05T06:32:56.763Z,91
2022-11-05T06:35:56.768Z,91
2022-11-05T06:38:56.750Z,91
2022-11-05T06:42:16.972Z,91
2022-11-05T06:44:56.753Z,91
2022-11-05T06:47:56.759Z,91
2022-11-05T06:50:56.751Z,91
2022-11-05T06:53:56.761Z,91
2022-11-05T06:56:56.742Z,91
2022-11-05T07:00:00.708Z,91
2022-11-05T07:02:56.743Z,91
2022-11-05T07:05:56.764Z,91
2022-11-05T07:08:56.753Z,91
2022-11-05T07:11:56.740Z,91
2022-11-05T07:14:56.740Z,91
2022-11-05T07:17:56.751Z,91
2022-11-05T07:20:56.741Z,91
2022-11-05T07:23:56.747Z,91
2022-11-05T07:26:56.743Z,91
2022-11-05T07:29:56.734Z,91
2022-11-05T07:32:56.733Z,91
2022-11-05T07:35:56.728Z,91
2022-11-05T07:39:00.271Z,91
2022-11-05T07:41:56.733Z,91
2022-11-05T07:44:56.732Z,91
2022-11-05T07:47:57.419Z,91
2022-11-05T07:50:57.376Z,91
2022-11-05T07:53:57.364Z,91
2022-11-05T07:56:57.361Z,91
2022-11-05T07:59:57.361Z,91
2022-11-05T08:03:00.886Z,91
2022-11-05T08:05:57.355Z,91
2022-11-05T08:08:57.363Z,91
2022-11-05T08:12:02.795Z,91
2022-11-05T08:14:57.900Z,91
2022-11-05T08:17:57.893Z,91
2022-11-05T08:20:57.897Z,91
2022-11-05T08:23:57.887Z,91
2022-11-05T08:26:57.902Z,91
2022-11-05T08:29:57.885Z,91
2022-11-05T08:32:57.878Z,91
2022-11-05T08:35:57.875Z,91
2022-11-05T08:38:57.878Z,91
2022-11-05T08:41:57.871Z,91
2022-11-05T08:44:57.878Z,91
2022-11-05T08:47:57.887Z,91
2022-11-05T08:50:57.881Z,91
2022-11-05T08:53:57.875Z,91
2022-11-05T08:56:57.871Z,91
2022-11-05T08:59:57.874Z,91
2022-11-05T09:02:57.873Z,91
2022-11-05T09:05:57.877Z,91
2022-11-05T09:08:57.868Z,91
2022-11-05T09:12:11.500Z,91
2022-11-05T09:14:57.863Z,91
2022-11-05T09:17:57.875Z,91
2022-11-05T09:20:57.861Z,91
2022-11-05T09:23:57.899Z,91
2022-11-05T09:26:57.857Z,91
2022-11-05T09:29:57.853Z,91
2022-11-05T09:32:57.857Z,91
2022-11-05T09:35:57.862Z,91
2022-11-05T09:38:57.851Z,91
2022-11-05T09:41:57.860Z,91
2022-11-05T09:44:57.861Z,91
2022-11-05T09:47:57.877Z,90
2022-11-05T09:50:57.862Z,90
2022-11-05T09:53:57.853Z,90
2022-11-05T09:56:57.856Z,90
2022-11-05T09:59:57.870Z,90
2022-11-05T10:02:57.862Z,90
2022-11-05T10:05:57.891Z,90
2022-11-05T10:08:57.861Z,90
2022-11-05T10:11:57.855Z,90
2022-11-05T10:14:57.842Z,90
2022-11-05T10:17:57.850Z,90
2022-11-05T10:20:57.848Z,90
2022-11-05T10:23:57.838Z,90
2022-11-05T10:26:57.844Z,90
2022-11-05T10:29:57.843Z,90
2022-11-05T10:32:57.847Z,90
2022-11-05T10:35:57.835Z,90
2022-11-05T10:38:57.846Z,90
2022-11-05T10:41:57.841Z,90
2022-11-05T10:44:57.846Z,90
2022-11-05T10:47:57.839Z,89
2022-11-05T10:50:57.835Z,89
2022-11-05T10:54:01.810Z,89
2022-11-05T10:56:57.833Z,89
2022-11-05T10:59:57.840Z,89
2022-11-05T11:02:57.842Z,89
2022-11-05T11:05:57.834Z,89
2022-11-05T11:08:57.847Z,89
2022-11-05T11:11:58.933Z,89
2022-11-05T11:14:58.328Z,89
2022-11-05T11:17:58.331Z,89
2022-11-05T11:20:58.325Z,89
2022-11-05T11:23:58.318Z,89
2022-11-05T11:26:58.328Z,89
2022-11-05T11:29:58.346Z,89
2022-11-05T11:32:58.333Z,89
2022-11-05T11:35:58.313Z,88
2022-11-05T11:38:58.314Z,88
2022-11-05T11:41:58.317Z,88
2022-11-05T11:44:58.303Z,88
2022-11-05T11:47:58.320Z,88
2022-11-05T11:53:58.301Z,88
2022-11-05T11:56:58.313Z,88
2022-11-05T12:00:08.602Z,88
2022-11-05T12:03:01.759Z,87
2022-11-05T12:05:58.314Z,87
2022-11-05T12:09:03.485Z,87
2022-11-05T12:11:58.312Z,87
2022-11-05T12:14:58.303Z,87
2022-11-05T12:17:58.320Z,87
2022-11-05T12:20:58.625Z,87
2022-11-05T12:23:58.315Z,87
2022-11-05T12:26:58.307Z,87
2022-11-05T12:29:58.305Z,87
2022-11-05T12:32:58.352Z,86
2022-11-05T12:35:58.341Z,86
2022-11-05T12:38:58.297Z,86
2022-11-05T12:41:58.285Z,86
2022-11-05T12:44:58.293Z,86
2022-11-05T12:47:58.287Z,86
2022-11-05T12:50:58.290Z,86
2022-11-05T12:53:58.295Z,86
2022-11-05T12:56:58.300Z,86
2022-11-05T12:59:58.295Z,85
2022-11-05T13:02:58.296Z,85
2022-11-05T13:06:03.028Z,85
2022-11-05T13:08:58.293Z,85
2022-11-05T13:11:58.287Z,85
2022-11-05T13:14:58.315Z,85
2022-11-05T13:17:58.309Z,85
2022-11-05T13:20:58.353Z,85
2022-11-05T13:23:58.292Z,85
2022-11-05T13:26:58.294Z,85
2022-11-05T13:29:58.294Z,85
2022-11-05T13:32:58.290Z,84
2022-11-05T13:35:58.283Z,84
2022-11-05T13:38:58.293Z,84
2022-11-05T13:41:58.294Z,84
2022-11-05T13:44:58.287Z,84
2022-11-05T13:47:58.291Z,84
2022-11-05T13:50:58.280Z,84
2022-11-05T13:53:58.276Z,85
2022-11-05T13:56:58.287Z,85
2022-11-05T13:59:58.293Z,85
2022-11-05T14:02:58.303Z,85
2022-11-05T14:05:58.286Z,85
2022-11-05T14:08:58.291Z,85
2022-11-05T14:11:58.290Z,85
2022-11-05T14:14:59.214Z,85
2022-11-05T14:17:58.291Z,85
2022-11-05T14:23:58.285Z,86
2022-11-05T14:26:58.281Z,86
2022-11-05T14:29:58.305Z,86
2022-11-05T14:32:58.288Z,86
2022-11-05T14:35:58.281Z,86
2022-11-05T14:39:03.139Z,86
2022-11-05T14:41:58.286Z,86
2022-11-05T14:44:58.279Z,86
2022-11-05T14:47:58.290Z,86
2022-11-05T14:50:58.283Z,86
2022-11-05T14:53:58.280Z,87
2022-11-05T14:56:58.280Z,87
2022-11-05T14:59:58.271Z,87
2022-11-05T15:02:58.277Z,87
2022-11-05T15:05:58.281Z,87
2022-11-05T15:08:58.272Z,87
2022-11-05T15:11:58.264Z,87
2022-11-05T15:14:58.271Z,87
2022-11-05T15:17:58.270Z,87
2022-11-05T15:20:58.277Z,87
2022-11-05T15:23:58.263Z,87
2022-11-05T15:26:58.263Z,87
2022-11-05T15:29:58.279Z,87
2022-11-05T15:32:58.273Z,87
2022-11-05T15:35:58.270Z,87
2022-11-05T15:39:23.270Z,87
2022-11-05T15:41:58.266Z,87
2022-11-05T15:44:58.273Z,87
2022-11-05T15:47:58.265Z,87
2022-11-05T15:50:58.265Z,87
2022-11-05T15:54:24.226Z,87
2022-11-05T15:56:58.274Z,87
2022-11-05T15:59:58.302Z,87
2022-11-05T16:02:58.256Z,87
2022-11-05T16:05:58.253Z,87
2022-11-05T16:08:58.258Z,87
2022-11-05T16:11:58.251Z,87
2022-11-05T16:14:58.267Z,87
2022-11-05T16:17:58.259Z,87
2022-11-05T16:20:58.258Z,87
2022-11-05T16:23:58.250Z,87
2022-11-05T16:27:02.862Z,87
2022-11-05T16:29:58.266Z,87
2022-11-05T16:32:58.245Z,87
2022-11-05T16:35:58.251Z,87
2022-11-05T16:38:58.239Z,87
2022-11-05T16:41:58.259Z,87
2022-11-05T16:44:58.279Z,87
2022-11-05T16:47:58.250Z,87
2022-11-05T16:50:58.241Z,87
2022-11-05T16:53:58.234Z,87
2022-11-05T16:56:58.244Z,87
2022-11-05T16:59:58.299Z,87
2022-11-05T17:02:58.345Z,87
2022-11-05T17:05:58.235Z,87
2022-11-05T17:08:58.242Z,87
2022-11-05T17:11:58.235Z,87
2022-11-05T17:14:58.231Z,87
2022-11-05T17:17:58.232Z,87
2022-11-05T17:20:58.225Z,87
2022-11-05T17:23:58.273Z,87
2022-11-05T17:26:58.235Z,87
2022-11-05T17:29:58.225Z,87
2022-11-05T17:32:58.306Z,87
2022-11-05T17:35:58.219Z,87
2022-11-05T17:38:58.223Z,87
2022-11-05T17:41:58.236Z,87
2022-11-05T17:44:58.218Z,87
2022-11-05T17:47:58.225Z,87
2022-11-05T17:50:58.224Z,87
2022-11-05T17:53:58.218Z,87
2022-11-05T17:56:58.223Z,87
2022-11-05T17:59:58.219Z,87
2022-11-05T18:02:58.238Z,87
2022-11-05T18:05:58.221Z,87
2022-11-05T18:08:58.229Z,87
2022-11-05T18:11:58.216Z,87
2022-11-05T18:14:58.208Z,87
2022-11-05T18:17:58.227Z,87
2022-11-05T18:20:58.220Z,87
2022-11-05T18:23:58.204Z,87
2022-11-05T18:26:58.206Z,87
2022-11-05T18:29:58.207Z,87
2022-11-05T18:32:58.201Z,87
2022-11-05T18:35:58.209Z,87
2022-11-05T18:38:58.257Z,87
2022-11-05T18:41:58.261Z,87
2022-11-05T18:44:58.250Z,87
2022-11-05T18:47:58.262Z,87
2022-11-05T18:51:01.793Z,87
2022-11-05T18:53:58.266Z,87
2022-11-05T18:56:58.272Z,87
2022-11-05T18:59:58.252Z,87
2022-11-05T19:02:58.306Z,87
2022-11-05T19:05:58.254Z,87
2022-11-05T19:08:58.289Z,87
2022-11-05T19:11:58.247Z,87
2022-11-05T19:15:02.311Z,87
2022-11-05T19:17:58.238Z,87
2022-11-05T19:20:58.236Z,87
2022-11-05T19:23:58.254Z,87
2022-11-05T19:26:58.244Z,87
2022-11-05T19:29:58.230Z,87
2022-11-05T19:32:58.246Z,87
2022-11-05T19:35:58.236Z,87
2022-11-05T19:38:58.243Z,87
2022-11-05T19:42:03.081Z,87
2022-11-05T19:45:03.122Z,87
2022-11-05T19:47:58.232Z,87
2022-11-05T19:50:58.230Z,87
2022-11-05T19:53:58.237Z,87
2022-11-05T19:56:58.239Z,87
2022-11-05T19:59:58.226Z,87
2022-11-05T20:02:58.408Z,87
2022-11-05T20:05:58.282Z,87
2022-11-05T20:09:20.382Z,87
2022-11-05T20:11:58.287Z,87
2022-11-05T20:14:58.283Z,87
2022-11-05T20:17:58.276Z,87
2022-11-05T20:20:58.284Z,87
2022-11-05T20:23:58.277Z,87
2022-11-05T20:26:58.337Z,87
2022-11-05T20:29:58.268Z,87
2022-11-05T20:32:58.531Z,87
2022-11-05T20:35:58.495Z,87
2022-11-05T20:38:58.523Z,87
2022-11-05T20:41:58.477Z,87
2022-11-05T20:44:58.521Z,87
2022-11-05T20:47:58.529Z,87
2022-11-05T20:50:58.540Z,87
2022-11-05T20:53:58.534Z,87
2022-11-05T20:56:58.533Z,87
2022-11-05T20:59:58.535Z,87
2022-11-05T21:02:58.673Z,87
2022-11-05T21:05:58.531Z,87
2022-11-05T21:08:58.527Z,87
2022-11-05T21:11:58.530Z,87
2022-11-05T21:14:58.517Z,87
2022-11-05T21:17:58.510Z,87
2022-11-05T21:20:58.517Z,87
2022-11-05T21:23:58.519Z,87
2022-11-05T21:26:58.509Z,87
2022-11-05T21:29:58.509Z,87
2022-11-05T21:32:58.513Z,87
2022-11-05T21:35:58.504Z,87
2022-11-05T21:38:58.515Z,87
2022-11-05T21:41:58.511Z,87
2022-11-05T21:45:00.484Z,87
2022-11-05T21:47:58.501Z,87
2022-11-05T21:50:58.511Z,87
2022-11-05T21:53:58.510Z,87
2022-11-05T21:56:58.513Z,87
2022-11-05T21:59:58.508Z,87
2022-11-05T22:02:58.611Z,87
2022-11-05T22:05:58.489Z,87
2022-11-05T22:08:58.494Z,87
2022-11-05T22:11:58.496Z,87
2022-11-05T22:14:58.477Z,87
2022-11-05T22:17:58.487Z,87
2022-11-05T22:20:58.493Z,87
2022-11-05T22:23:58.499Z,87
2022-11-05T22:26:58.487Z,87
2022-11-05T22:29:58.506Z,87
2022-11-05T22:32:58.481Z,87
2022-11-05T22:35:58.490Z,87
2022-11-05T22:38:58.477Z,87
2022-11-05T22:41:58.492Z,87
2022-11-05T22:44:58.476Z,87
2022-11-05T22:47:58.475Z,87
2022-11-05T22:50:58.484Z,87
2022-11-05T22:53:58.476Z,86
2022-11-05T22:56:58.479Z,86
2022-11-05T22:59:58.465Z,86
2022-11-05T23:02:58.579Z,86
2022-11-05T23:05:58.467Z,86
2022-11-05T23:08:58.471Z,86
2022-11-05T23:11:58.468Z,86
2022-11-05T23:14:58.467Z,86
2022-11-05T23:17:58.469Z,86
2022-11-05T23:20:58.469Z,86
2022-11-05T23:23:58.464Z,86
2022-11-05T23:26:58.457Z,86
2022-11-05T23:29:58.464Z,86
2022-11-05T23:32:58.530Z,86
2022-11-05T23:35:58.533Z,86
2022-11-05T23:38:58.536Z,86
2022-11-05T23:41:58.532Z,86
2022-11-05T23:44:58.541Z,86
2022-11-05T23:47:58.533Z,86
2022-11-05T23:50:58.524Z,86
2022-11-05T23:53:58.534Z,86
2022-11-05T23:56:58.525Z,86
2022-11-05T23:59:58.534Z,86
